createdAt,value
2017-10-04T00:02:18.645Z,9.20
2017-10-04T00:04:46.450Z,9.20
2017-10-04T00:07:14.200Z,9.20
2017-10-04T00:09:41.953Z,9.20
2017-10-04T00:12:10.703Z,9.20
2017-10-04T00:14:38.448Z,9.20
2017-10-04T00:17:06.200Z,9.20
2017-10-04T00:19:34.008Z,9.10
2017-10-04T00:22:01.758Z,9.10
2017-10-04T00:24:29.506Z,9.10
2017-10-04T00:26:57.343Z,9.10
2017-10-04T00:29:25.091Z,9.10
2017-10-04T00:31:52.847Z,9.00
2017-10-04T00:34:20.649Z,9.10
2017-10-04T00:36:48.399Z,9.00
2017-10-04T00:39:16.152Z,9.00
2017-10-04T00:41:43.959Z,9.00
2017-10-04T00:44:11.708Z,9.00
2017-10-04T00:46:39.462Z,9.00
2017-10-04T00:49:07.278Z,9.00
2017-10-04T00:51:35.024Z,9.00
2017-10-04T00:54:03.543Z,8.90
2017-10-04T00:56:31.347Z,8.90
2017-10-04T00:58:59.098Z,9.00
2017-10-04T01:01:26.851Z,9.00
2017-10-04T01:03:55.411Z,8.90
2017-10-04T01:06:23.158Z,8.90
2017-10-04T01:08:50.912Z,8.80
2017-10-04T01:11:18.724Z,8.90
2017-10-04T01:13:46.473Z,8.80
2017-10-04T01:16:14.219Z,8.80
2017-10-04T01:18:42.053Z,8.80
2017-10-04T01:21:09.822Z,8.80
2017-10-04T01:23:37.572Z,8.80
2017-10-04T01:26:05.379Z,8.80
2017-10-04T01:28:33.130Z,8.80
2017-10-04T01:31:00.886Z,8.70
2017-10-04T01:33:28.691Z,8.80
2017-10-04T01:35:56.447Z,8.70
2017-10-04T01:38:24.196Z,8.70
2017-10-04T01:40:52.099Z,8.70
2017-10-04T01:43:20.615Z,8.70
2017-10-04T01:45:48.376Z,8.70
2017-10-04T01:48:16.179Z,8.80
2017-10-04T01:50:43.932Z,8.80
2017-10-04T01:53:11.675Z,8.80
2017-10-04T01:55:39.479Z,8.80
2017-10-04T01:58:08.011Z,8.80
2017-10-04T02:00:35.762Z,8.70
2017-10-04T02:03:03.572Z,8.80
2017-10-04T02:05:31.320Z,8.80
2017-10-04T02:07:59.071Z,8.90
2017-10-04T02:10:26.880Z,8.90
2017-10-04T02:12:55.391Z,8.90
2017-10-04T02:15:23.139Z,9.00
2017-10-04T02:17:50.942Z,8.90
2017-10-04T02:20:18.691Z,9.00
2017-10-04T02:22:47.203Z,9.00
2017-10-04T02:25:15.002Z,9.00
2017-10-04T02:27:42.749Z,9.00
2017-10-04T02:30:10.492Z,9.10
2017-10-04T02:32:39.060Z,9.10
2017-10-04T02:35:06.804Z,9.10
2017-10-04T02:37:34.555Z,9.10
2017-10-04T02:40:02.368Z,9.10
2017-10-04T02:42:30.888Z,9.10
2017-10-04T02:44:58.634Z,9.10
2017-10-04T02:47:26.459Z,9.10
2017-10-04T02:49:54.207Z,9.10
2017-10-04T02:52:21.956Z,9.10
2017-10-04T02:54:49.764Z,9.10
2017-10-04T02:57:18.286Z,9.00
2017-10-04T02:59:46.035Z,9.00
2017-10-04T03:02:13.852Z,9.10
2017-10-04T03:04:42.362Z,9.00
2017-10-04T03:07:10.103Z,9.00
2017-10-04T03:09:38.671Z,8.90
2017-10-04T03:12:07.184Z,8.80
2017-10-04T03:14:34.940Z,8.80
2017-10-04T03:17:02.748Z,8.80
2017-10-04T03:19:30.499Z,8.80
2017-10-04T03:21:58.247Z,8.80
2017-10-04T03:24:26.051Z,8.80
2017-10-04T03:26:53.790Z,8.80
2017-10-04T03:29:21.534Z,8.80
2017-10-04T03:31:49.343Z,8.80
2017-10-04T03:34:17.852Z,8.90
2017-10-04T03:36:45.599Z,8.90
2017-10-04T03:39:14.171Z,9.10
2017-10-04T03:41:42.678Z,9.10
2017-10-04T03:44:10.428Z,9.10
2017-10-04T03:46:38.239Z,9.30
2017-10-04T03:49:05.989Z,9.30
2017-10-04T03:51:33.742Z,9.40
2017-10-04T03:54:01.543Z,9.50
2017-10-04T03:56:29.295Z,9.60
2017-10-04T03:58:57.060Z,9.70
2017-10-04T04:01:25.162Z,9.80
2017-10-04T04:03:52.906Z,9.80
2017-10-04T04:06:21.418Z,9.90
2017-10-04T04:08:49.229Z,9.80
2017-10-04T04:11:16.971Z,9.90
2017-10-04T04:13:44.726Z,9.90
2017-10-04T04:16:12.774Z,9.90
2017-10-04T04:18:40.527Z,9.90
2017-10-04T04:21:08.281Z,9.80
2017-10-04T04:23:36.079Z,9.70
2017-10-04T04:26:03.824Z,9.60
2017-10-04T04:28:31.588Z,9.50
2017-10-04T04:30:59.390Z,9.40
2017-10-04T04:33:27.136Z,9.40
2017-10-04T04:35:54.895Z,9.30
2017-10-04T04:38:34.583Z,9.20
2017-10-04T04:41:03.096Z,9.10
2017-10-04T04:43:30.847Z,9.10
2017-10-04T04:45:58.650Z,9.10
2017-10-04T04:48:26.409Z,9.10
2017-10-04T04:50:54.159Z,9.10
2017-10-04T04:53:21.968Z,9.10
2017-10-04T04:55:50.478Z,9.20
2017-10-04T04:58:18.223Z,9.20
2017-10-04T05:00:46.039Z,9.20
2017-10-04T05:03:13.792Z,9.30
2017-10-04T05:05:41.538Z,9.20
2017-10-04T05:08:09.336Z,9.20
2017-10-04T05:10:37.091Z,9.20
2017-10-04T05:13:04.835Z,9.30
2017-10-04T05:15:32.648Z,9.30
2017-10-04T05:18:01.174Z,9.50
2017-10-04T05:20:28.926Z,9.50
2017-10-04T05:22:56.727Z,9.50
2017-10-04T05:25:24.498Z,9.60
2017-10-04T05:27:53.016Z,9.70
2017-10-04T05:30:20.818Z,9.70
2017-10-04T05:32:48.563Z,9.80
2017-10-04T05:35:16.311Z,10.00
2017-10-04T05:37:44.123Z,10.20
2017-10-04T05:40:11.871Z,10.40
2017-10-04T05:42:39.619Z,10.60
2017-10-04T05:45:07.432Z,10.70
2017-10-04T05:47:35.179Z,10.80
2017-10-04T05:50:03.700Z,11.10
2017-10-04T05:52:31.504Z,11.10
2017-10-04T05:54:59.272Z,11.30
2017-10-04T05:57:27.028Z,11.50
2017-10-04T05:59:54.832Z,11.70
2017-10-04T06:02:22.600Z,11.90
2017-10-04T06:04:50.351Z,11.90
2017-10-04T06:07:18.156Z,12.10
2017-10-04T06:09:45.902Z,12.50
2017-10-04T06:12:13.653Z,12.80
2017-10-04T06:14:42.227Z,13.30
2017-10-04T06:17:09.992Z,13.30
2017-10-04T06:19:37.752Z,13.70
2017-10-04T06:22:05.587Z,14.10
2017-10-04T06:24:34.105Z,14.40
2017-10-04T06:27:03.068Z,14.30
2017-10-04T06:29:30.883Z,14.40
2017-10-04T06:31:58.652Z,14.40
2017-10-04T06:34:26.415Z,14.40
2017-10-04T06:36:54.224Z,14.30
2017-10-04T06:39:21.994Z,14.30
2017-10-04T06:41:49.744Z,14.30
2017-10-04T06:44:17.554Z,14.20
2017-10-04T06:46:45.312Z,14.30
2017-10-04T06:49:13.071Z,14.30
2017-10-04T06:51:40.898Z,14.20
2017-10-04T06:54:08.651Z,14.10
2017-10-04T06:56:36.395Z,13.90
2017-10-04T06:59:04.966Z,13.90
2017-10-04T07:01:32.721Z,13.90
2017-10-04T07:04:00.471Z,13.90
2017-10-04T07:06:28.275Z,14.00
2017-10-04T07:08:56.045Z,13.90
2017-10-04T07:11:23.816Z,14.00
2017-10-04T07:13:51.649Z,14.00
2017-10-04T07:16:20.184Z,14.60
2017-10-04T07:18:47.954Z,14.60
2017-10-04T07:21:15.778Z,15.00
2017-10-04T07:23:43.538Z,15.30
2017-10-04T07:26:11.310Z,15.20
2017-10-04T07:28:39.137Z,15.20
2017-10-04T07:31:07.686Z,15.00
2017-10-04T07:33:35.512Z,14.90
2017-10-04T07:36:03.347Z,14.90
2017-10-04T07:38:31.880Z,15.30
2017-10-04T07:40:59.674Z,15.30
2017-10-04T07:43:27.501Z,15.10
2017-10-04T07:45:55.265Z,15.00
2017-10-04T07:48:23.030Z,14.90
2017-10-04T07:50:50.860Z,15.10
2017-10-04T07:53:18.628Z,15.70
2017-10-04T07:55:46.393Z,16.60
2017-10-04T07:58:14.218Z,17.00
2017-10-04T08:00:42.754Z,17.60
2017-10-04T08:03:10.528Z,17.60
2017-10-04T08:05:38.376Z,17.40
2017-10-04T08:08:06.145Z,17.10
2017-10-04T08:10:33.918Z,16.40
2017-10-04T08:13:01.750Z,16.20
2017-10-04T08:15:29.521Z,16.10
2017-10-04T08:17:57.290Z,16.30
2017-10-04T08:20:25.113Z,16.20
2017-10-04T08:22:52.881Z,16.30
2017-10-04T08:25:20.647Z,16.30
2017-10-04T08:27:48.477Z,16.20
2017-10-04T08:30:16.242Z,16.40
2017-10-04T08:32:44.776Z,17.40
2017-10-04T08:35:12.603Z,17.40
2017-10-04T08:37:40.369Z,18.60
2017-10-04T08:40:08.139Z,20.20
2017-10-04T08:42:35.985Z,21.10
2017-10-04T08:45:04.542Z,24.20
2017-10-04T09:01:03.885Z,23.80
2017-10-04T09:03:31.650Z,22.90
2017-10-04T09:06:03.410Z,22.90
2017-10-04T09:08:31.209Z,22.00
2017-10-04T09:10:59.743Z,20.20
2017-10-04T09:13:27.569Z,20.10
2017-10-04T09:15:55.328Z,19.90
2017-10-04T09:18:23.094Z,19.40
2017-10-04T09:20:50.941Z,19.40
2017-10-04T09:23:19.468Z,19.30
2017-10-04T09:25:47.234Z,19.30
2017-10-04T09:28:15.078Z,19.00
2017-10-04T09:30:42.863Z,18.50
2017-10-04T09:33:10.624Z,17.80
2017-10-04T09:35:38.449Z,17.30
2017-10-04T09:38:06.220Z,16.80
2017-10-04T09:40:33.986Z,16.40
2017-10-04T09:43:01.837Z,16.00
2017-10-04T09:45:29.600Z,15.80
2017-10-04T09:47:57.370Z,15.60
2017-10-04T09:50:25.194Z,15.50
2017-10-04T09:52:53.751Z,15.30
2017-10-04T09:55:21.518Z,15.30
2017-10-04T09:57:49.345Z,15.30
2017-10-04T10:00:17.115Z,15.50
2017-10-04T10:02:44.877Z,16.00
2017-10-04T10:05:12.702Z,16.70
2017-10-04T10:07:41.233Z,17.90
2017-10-04T10:10:08.999Z,17.90
2017-10-04T10:12:36.829Z,18.20
2017-10-04T10:15:04.598Z,18.20
2017-10-04T10:17:34.890Z,18.50
2017-10-04T10:20:01.762Z,18.70
2017-10-04T10:22:29.529Z,19.00
2017-10-04T10:24:57.333Z,18.90
2017-10-04T10:27:25.165Z,18.80
2017-10-04T10:29:52.934Z,18.60
2017-10-04T10:32:20.718Z,18.40
2017-10-04T10:34:48.541Z,18.20
2017-10-04T10:37:16.301Z,18.10
2017-10-04T10:39:44.072Z,18.00
2017-10-04T10:42:11.910Z,18.00
2017-10-04T10:44:39.669Z,17.70
2017-10-04T10:47:07.429Z,17.70
2017-10-04T10:49:35.257Z,17.60
2017-10-04T10:52:03.029Z,17.70
2017-10-04T10:54:31.566Z,17.80
2017-10-04T10:56:59.388Z,17.70
2017-10-04T10:59:27.197Z,18.00
2017-10-04T11:01:54.958Z,18.00
2017-10-04T11:04:22.798Z,18.00
2017-10-04T11:06:50.566Z,18.10
2017-10-04T11:09:18.330Z,18.30
2017-10-04T11:11:46.166Z,18.50
2017-10-04T11:14:13.934Z,18.50
2017-10-04T11:16:41.694Z,18.40
2017-10-04T11:19:09.529Z,18.50
2017-10-04T11:21:38.062Z,18.50
2017-10-04T11:24:05.831Z,18.40
2017-10-04T11:26:33.662Z,18.50
2017-10-04T11:29:01.425Z,18.60
2017-10-04T11:31:29.190Z,18.60
2017-10-04T11:33:57.019Z,18.40
2017-10-04T11:36:24.782Z,18.30
2017-10-04T11:38:52.550Z,18.30
2017-10-04T11:41:21.146Z,18.00
2017-10-04T11:43:48.924Z,18.00
2017-10-04T11:46:16.733Z,18.00
2017-10-04T11:48:44.558Z,18.00
2017-10-04T11:51:12.356Z,17.90
2017-10-04T11:53:40.120Z,18.10
2017-10-04T11:56:08.370Z,18.20
2017-10-04T11:58:36.147Z,18.30
2017-10-04T12:01:03.918Z,18.20
2017-10-04T12:03:31.757Z,18.30
2017-10-04T12:05:59.526Z,18.50
2017-10-04T12:08:27.294Z,18.70
2017-10-04T12:10:55.118Z,18.60
2017-10-04T12:13:22.880Z,18.70
2017-10-04T12:15:50.642Z,18.80
2017-10-04T12:18:18.470Z,18.80
2017-10-04T12:20:47.000Z,18.80
2017-10-04T12:23:14.789Z,18.80
2017-10-04T12:25:42.622Z,18.80
2017-10-04T12:28:10.389Z,18.90
2017-10-04T12:30:38.157Z,19.10
2017-10-04T12:33:06.077Z,19.20
2017-10-04T12:35:34.610Z,19.00
2017-10-04T12:38:02.378Z,19.00
2017-10-04T12:40:30.243Z,19.00
2017-10-04T12:42:58.033Z,19.00
2017-10-04T12:45:26.569Z,18.90
2017-10-04T12:47:54.401Z,18.90
2017-10-04T12:50:22.178Z,18.80
2017-10-04T12:52:49.955Z,18.70
2017-10-04T12:55:17.780Z,18.70
2017-10-04T12:57:45.556Z,18.50
2017-10-04T13:00:13.359Z,18.30
2017-10-04T13:02:41.193Z,18.10
2017-10-04T13:05:08.986Z,18.00
2017-10-04T13:07:36.753Z,18.00
2017-10-04T13:10:04.581Z,18.00
2017-10-04T13:12:32.354Z,18.10
2017-10-04T13:15:00.118Z,18.10
2017-10-04T13:17:27.946Z,18.20
2017-10-04T13:19:55.705Z,18.20
2017-10-04T13:22:23.478Z,18.10
2017-10-04T13:24:51.310Z,18.10
2017-10-04T13:27:19.846Z,18.10
2017-10-04T13:29:47.633Z,18.10
2017-10-04T13:32:15.465Z,18.20
2017-10-04T13:34:43.242Z,18.20
2017-10-04T13:37:11.038Z,18.10
2017-10-04T13:39:39.642Z,18.20
2017-10-04T13:42:07.462Z,18.20
2017-10-04T13:44:35.235Z,18.20
2017-10-04T13:47:03.080Z,18.20
2017-10-04T13:49:30.846Z,18.00
2017-10-04T13:51:58.618Z,17.90
2017-10-04T13:54:26.449Z,17.70
2017-10-04T13:56:54.214Z,17.60
2017-10-04T13:59:21.977Z,17.50
2017-10-04T14:01:49.953Z,17.30
2017-10-04T14:04:17.723Z,17.30
2017-10-04T14:06:45.505Z,17.30
2017-10-04T14:09:13.328Z,17.30
2017-10-04T14:11:41.118Z,17.10
2017-10-04T14:14:08.921Z,17.00
2017-10-04T14:16:36.757Z,16.80
2017-10-04T14:19:05.299Z,16.60
2017-10-04T14:21:33.065Z,16.60
2017-10-04T14:24:00.894Z,16.40
2017-10-04T14:26:28.686Z,16.40
2017-10-04T14:28:56.490Z,16.30
2017-10-04T14:31:25.097Z,16.10
2017-10-04T14:33:52.876Z,16.10
2017-10-04T14:36:20.651Z,16.20
2017-10-04T14:38:49.343Z,16.30
2017-10-04T14:41:17.113Z,16.30
2017-10-04T14:43:44.883Z,16.40
2017-10-04T14:46:12.731Z,16.30
2017-10-04T14:48:40.512Z,16.20
2017-10-04T14:51:08.294Z,16.10
2017-10-04T14:53:36.893Z,15.90
2017-10-04T14:56:04.694Z,15.90
2017-10-04T14:58:32.464Z,15.80
2017-10-04T15:01:00.303Z,15.80
2017-10-04T15:03:28.108Z,15.80
2017-10-04T15:05:55.881Z,15.70
2017-10-04T15:08:24.486Z,15.40
2017-10-04T15:10:52.255Z,15.40
2017-10-04T15:13:20.018Z,15.30
2017-10-04T15:15:47.844Z,15.20
2017-10-04T15:18:15.612Z,15.20
2017-10-04T15:20:44.146Z,15.10
2017-10-04T15:23:11.971Z,15.10
2017-10-04T15:25:40.508Z,14.90
2017-10-04T15:28:08.275Z,14.90
2017-10-04T15:30:36.097Z,14.90
2017-10-04T15:33:03.877Z,14.90
2017-10-04T15:35:31.643Z,14.80
2017-10-04T15:37:59.469Z,14.70
2017-10-04T15:40:27.246Z,14.70
2017-10-04T15:42:55.017Z,14.70
2017-10-04T15:45:22.861Z,14.60
2017-10-04T15:47:50.634Z,14.60
2017-10-04T15:50:18.423Z,14.50
2017-10-04T15:52:46.250Z,14.50
2017-10-04T15:55:14.038Z,14.40
2017-10-04T15:57:41.819Z,14.40
2017-10-04T16:00:09.643Z,14.20
2017-10-04T16:02:37.414Z,14.20
2017-10-04T16:05:05.220Z,14.20
2017-10-04T16:07:33.055Z,14.10
2017-10-04T16:10:00.818Z,14.00
2017-10-04T16:12:28.606Z,14.00
2017-10-04T16:14:56.426Z,13.90
2017-10-04T16:17:24.194Z,13.90
2017-10-04T16:19:51.960Z,13.80
2017-10-04T16:22:19.790Z,13.80
2017-10-04T16:24:47.558Z,13.80
2017-10-04T16:27:15.351Z,13.70
2017-10-04T16:29:43.175Z,13.70
2017-10-04T16:32:10.953Z,13.70
2017-10-04T16:34:38.756Z,13.60
2017-10-04T16:37:06.582Z,13.60
2017-10-04T16:39:34.353Z,13.50
2017-10-04T16:42:02.150Z,13.50
2017-10-04T16:44:30.003Z,13.50
2017-10-04T16:46:57.770Z,13.40
2017-10-04T16:49:25.587Z,13.40
2017-10-04T16:51:53.410Z,13.40
2017-10-04T16:54:21.188Z,13.30
2017-10-04T16:56:49.792Z,13.30
2017-10-04T16:59:18.469Z,13.20
2017-10-04T17:01:46.612Z,13.20
2017-10-04T17:04:15.413Z,13.00
2017-10-04T17:06:44.125Z,12.90
2017-10-04T17:09:12.121Z,12.90
2017-10-04T17:11:39.986Z,12.90
2017-10-04T17:14:07.833Z,12.80
2017-10-04T17:16:35.896Z,12.80
2017-10-04T17:19:03.719Z,12.80
2017-10-04T17:21:32.531Z,12.90
2017-10-04T17:24:01.094Z,12.80
2017-10-04T17:26:29.876Z,12.70
2017-10-04T17:28:58.783Z,12.70
2017-10-04T17:31:26.819Z,12.70
2017-10-04T17:33:55.387Z,12.70
2017-10-04T17:36:23.352Z,12.70
2017-10-04T17:38:51.945Z,12.70
2017-10-04T17:41:20.544Z,12.80
2017-10-04T17:43:48.651Z,12.80
2017-10-04T17:46:17.659Z,12.70
2017-10-04T17:48:45.659Z,12.70
2017-10-04T17:51:14.082Z,12.70
2017-10-04T17:53:41.903Z,12.60
2017-10-04T17:56:10.489Z,12.60
2017-10-04T17:58:38.448Z,12.60
2017-10-04T18:01:06.397Z,12.70
2017-10-04T18:03:34.227Z,12.70
2017-10-04T18:06:02.148Z,12.70
2017-10-04T18:08:29.935Z,12.70
2017-10-04T18:10:57.737Z,12.70
2017-10-04T18:13:25.602Z,12.70
2017-10-04T18:15:53.383Z,12.80
2017-10-04T18:18:21.161Z,12.80
2017-10-04T18:20:49.766Z,12.90
2017-10-04T18:23:17.564Z,12.90
2017-10-04T18:25:45.360Z,12.90
2017-10-04T18:28:13.961Z,12.80
2017-10-04T18:30:41.734Z,12.80
2017-10-04T18:33:09.511Z,12.90
2017-10-04T18:35:37.351Z,12.80
2017-10-04T18:38:05.122Z,12.80
2017-10-04T18:40:32.911Z,12.70
2017-10-04T18:43:00.750Z,12.80
2017-10-04T18:45:28.527Z,12.80
2017-10-04T18:47:56.833Z,12.80
2017-10-04T18:50:24.839Z,12.80
2017-10-04T18:52:52.644Z,12.80
2017-10-04T18:55:20.422Z,12.80
2017-10-04T18:57:48.334Z,12.80
2017-10-04T19:00:16.172Z,12.80
2017-10-04T19:02:44.719Z,12.80
2017-10-04T19:05:12.565Z,12.80
2017-10-04T19:07:40.513Z,12.80
2017-10-04T19:10:08.419Z,12.80
2017-10-04T19:12:36.270Z,12.80
2017-10-04T19:15:04.053Z,12.80
2017-10-04T19:17:31.900Z,12.80
2017-10-04T19:19:59.737Z,12.80
2017-10-04T19:22:27.532Z,12.80
2017-10-04T19:24:55.335Z,12.80
2017-10-04T19:27:23.231Z,12.90
2017-10-04T19:29:51.122Z,12.80
2017-10-04T19:32:18.913Z,12.90
2017-10-04T19:34:47.529Z,12.90
2017-10-04T19:37:15.313Z,12.90
2017-10-04T19:39:43.086Z,12.90
2017-10-04T19:42:10.925Z,12.90
2017-10-04T19:44:38.706Z,12.80
2017-10-04T19:47:06.497Z,12.70
2017-10-04T19:49:34.330Z,12.70
2017-10-04T19:52:02.106Z,12.70
2017-10-04T19:54:29.879Z,12.60
2017-10-04T19:56:57.718Z,12.60
2017-10-04T19:59:25.533Z,12.60
2017-10-04T20:01:54.071Z,12.60
2017-10-04T20:04:21.907Z,12.60
2017-10-04T20:06:49.676Z,12.60
2017-10-04T20:09:17.446Z,12.60
2017-10-04T20:11:45.278Z,12.60
2017-10-04T20:14:13.078Z,12.50
2017-10-04T20:16:40.851Z,12.50
2017-10-04T20:19:08.707Z,12.50
2017-10-04T20:21:36.481Z,12.50
2017-10-04T20:24:04.258Z,12.40
2017-10-04T20:26:32.849Z,12.50
2017-10-04T20:29:01.391Z,12.40
2017-10-04T20:31:29.161Z,12.40
2017-10-04T20:33:56.986Z,12.40
2017-10-04T20:36:24.755Z,12.40
2017-10-04T20:38:52.525Z,12.40
2017-10-04T20:41:20.397Z,12.30
2017-10-04T20:43:48.172Z,12.30
2017-10-04T20:46:15.946Z,12.30
2017-10-04T20:48:43.807Z,12.30
2017-10-04T20:51:11.575Z,12.30
2017-10-04T20:53:39.341Z,12.30
2017-10-04T20:56:07.968Z,12.30
2017-10-04T20:58:35.737Z,12.20
2017-10-04T21:01:03.506Z,12.30
2017-10-04T21:03:31.350Z,12.30
2017-10-04T21:05:59.125Z,12.30
2017-10-04T21:08:27.011Z,12.30
2017-10-04T21:10:54.835Z,12.30
2017-10-04T21:13:22.610Z,12.30
2017-10-04T21:15:50.394Z,12.30
2017-10-04T21:18:18.256Z,12.20
2017-10-04T21:20:46.027Z,12.20
2017-10-04T21:23:13.796Z,12.20
2017-10-04T21:25:41.638Z,12.30
2017-10-04T21:28:09.429Z,12.30
2017-10-04T21:30:37.197Z,12.40
2017-10-04T21:33:05.793Z,12.40
2017-10-04T21:35:34.324Z,12.50
2017-10-04T21:38:02.091Z,12.40
2017-10-04T21:40:29.922Z,12.50
2017-10-04T21:42:57.687Z,12.50
2017-10-04T21:45:25.454Z,12.50
2017-10-04T21:47:53.282Z,12.50
2017-10-04T21:50:21.829Z,12.50
2017-10-04T21:52:49.609Z,12.50
2017-10-04T21:55:17.434Z,12.50
2017-10-04T21:57:45.218Z,12.50
2017-10-04T22:00:12.990Z,12.50
2017-10-04T22:02:40.845Z,12.40
2017-10-04T22:05:08.609Z,12.50
2017-10-04T22:07:36.379Z,12.50
2017-10-04T22:10:04.223Z,12.50
2017-10-04T22:12:31.991Z,12.50
2017-10-04T22:14:59.760Z,12.50
2017-10-04T22:17:27.611Z,12.50
2017-10-04T22:19:55.376Z,12.50
2017-10-04T22:22:23.137Z,12.50
2017-10-04T22:24:50.977Z,12.60
2017-10-04T22:27:18.746Z,12.60
2017-10-04T22:29:46.517Z,12.60
2017-10-04T22:32:14.354Z,12.60
2017-10-04T22:34:42.117Z,12.60
2017-10-04T22:37:09.889Z,12.60
2017-10-04T22:39:37.729Z,12.60
2017-10-04T22:42:05.508Z,12.60
2017-10-04T22:44:33.265Z,12.60
2017-10-04T22:47:01.089Z,12.60
2017-10-04T22:49:29.621Z,12.60
2017-10-04T22:51:57.385Z,12.60
2017-10-04T22:54:25.210Z,12.60
2017-10-04T22:56:52.977Z,12.60
2017-10-04T22:59:20.758Z,12.70
2017-10-04T23:01:48.583Z,12.70
2017-10-04T23:04:17.117Z,12.70
2017-10-04T23:06:44.885Z,12.70
2017-10-04T23:09:12.872Z,12.70
2017-10-04T23:11:40.638Z,12.70
2017-10-04T23:14:08.407Z,12.70
2017-10-04T23:16:37.022Z,12.60
2017-10-04T23:19:04.803Z,12.60
2017-10-04T23:21:32.579Z,12.60
2017-10-04T23:24:00.397Z,12.60
2017-10-04T23:26:28.161Z,12.60
2017-10-04T23:28:55.962Z,12.60
2017-10-04T23:31:23.804Z,12.60
2017-10-04T23:33:51.570Z,12.60
2017-10-04T23:36:19.337Z,12.60
2017-10-04T23:38:47.153Z,12.60
2017-10-04T23:41:15.759Z,12.60
2017-10-04T23:43:43.527Z,12.50
2017-10-04T23:46:11.353Z,12.50
2017-10-04T23:48:39.882Z,12.50
2017-10-04T23:51:07.646Z,12.50
2017-10-04T23:53:35.466Z,12.50
2017-10-04T23:56:03.992Z,12.50
2017-10-04T23:58:31.753Z,12.50
